Time;durP1;ratioP1;P1;durP2;ratioP2;P2;SDS_P1;SDS_P2;PMS_P1;PMS_P2;Temp;Humidity;BMP_temperature;BMP_pressure;BME280_temperature;BME280_humidity;BME280_pressure;Samples;Min_cycle;Max_cycle;Signal;HPM_P1;HPM_P2
2022/05/04 00:00:32;;;;;;;29.90;15.00;;;;;;;9.00;71.13;99426.02;103613;1303;23008;-26
2022/05/04 00:03:00;;;;;;;24.30;15.20;;;;;;;8.93;70.55;99426.71;103605;1303;25031;-25
2022/05/04 00:05:31;;;;;;;27.80;15.30;;;;;;;8.87;70.96;99425.81;103519;1303;23904;-30
2022/05/04 00:08:00;;;;;;;34.20;16.50;;;;;;;8.82;71.26;99424.91;103576;1303;25336;-23
2022/05/04 00:10:30;;;;;;;38.30;16.80;;;;;;;8.78;72.19;99424.73;103557;1303;22512;-24
2022/05/04 00:12:59;;;;;;;33.00;17.30;;;;;;;8.72;72.33;99424.01;103576;1303;26122;-27
2022/05/04 00:15:28;;;;;;;31.00;16.00;;;;;;;8.66;72.25;99426.17;103568;1303;23596;-27
2022/05/04 00:17:57;;;;;;;21.40;11.80;;;;;;;8.61;74.51;99427.05;103602;1303;24238;-31
2022/05/04 00:20:26;;;;;;;42.70;20.20;;;;;;;8.60;75.25;99431.35;103531;1303;24368;-28
2022/05/04 00:22:55;;;;;;;36.70;18.90;;;;;;;8.57;73.45;99427.53;103604;1303;23734;-25
2022/05/04 00:25:24;;;;;;;21.20;14.80;;;;;;;8.56;72.21;99427.73;103585;1303;24294;-30
2022/05/04 00:27:53;;;;;;;22.30;14.10;;;;;;;8.55;71.41;99425.91;103603;1303;23896;-28
2022/05/04 00:30:22;;;;;;;29.50;17.40;;;;;;;8.54;71.95;99430.52;103598;1303;23604;-25
2022/05/04 00:32:51;;;;;;;26.50;15.10;;;;;;;8.51;73.29;99432.79;103517;1303;22508;-23
2022/05/04 00:35:20;;;;;;;25.00;15.50;;;;;;;8.53;73.47;99431.63;103585;1303;25053;-30
2022/05/04 00:37:49;;;;;;;26.10;15.40;;;;;;;8.55;73.80;99430.53;103549;1301;22648;-27
2022/05/04 00:40:18;;;;;;;33.30;16.10;;;;;;;8.53;75.07;99429.27;103553;1303;22503;-28
2022/05/04 00:42:47;;;;;;;24.20;15.10;;;;;;;8.49;78.70;99433.17;103534;1302;24294;-25
2022/05/04 00:45:16;;;;;;;23.50;13.80;;;;;;;8.46;79.54;99434.31;103545;1303;23648;-28
2022/05/04 00:47:45;;;;;;;23.40;14.60;;;;;;;8.40;81.81;99434.76;103575;1303;24987;-29
2022/05/04 00:50:14;;;;;;;26.60;14.60;;;;;;;8.36;82.65;99435.27;103327;1303;24237;-23
2022/05/04 00:52:44;;;;;;;20.80;14.10;;;;;;;8.33;80.40;99432.52;103570;1303;22631;-23
2022/05/04 00:55:13;;;;;;;26.50;16.60;;;;;;;8.32;77.19;99430.11;103606;1303;24295;-25
2022/05/04 01:00:15;;;;;;;26.20;16.20;;;;;;;8.33;75.61;99431.86;103585;1303;24192;-28
2022/05/04 01:02:44;;;;;;;41.60;17.40;;;;;;;8.36;74.49;99430.59;103552;1303;22534;-28
2022/05/04 01:05:13;;;;;;;42.20;20.70;;;;;;;8.33;75.69;99425.77;103508;1303;24233;-30
2022/05/04 01:07:43;;;;;;;30.20;19.10;;;;;;;8.29;75.77;99418.79;103584;1303;23612;-28
2022/05/04 01:10:13;;;;;;;21.50;14.70;;;;;;;8.23;77.25;99416.26;103425;1303;25258;-28
2022/05/04 01:12:47;;;;;;;28.20;16.10;;;;;;;8.16;76.16;99417.29;103583;1303;23749;-25
2022/05/04 01:15:17;;;;;;;30.80;16.80;;;;;;;8.09;75.95;99424.21;103580;1303;25019;-25
2022/05/04 01:17:47;;;;;;;29.30;16.00;;;;;;;8.02;75.92;99425.90;103604;1303;25047;-28
2022/05/04 01:20:17;;;;;;;39.50;25.50;;;;;;;7.96;75.45;99425.14;103528;1303;22924;-28
2022/05/04 01:22:46;;;;;;;30.80;20.70;;;;;;;7.90;75.57;99429.23;103337;1303;22770;-28
2022/05/04 01:25:15;;;;;;;19.60;13.40;;;;;;;7.84;76.79;99432.91;103363;1303;25008;-26
2022/05/04 01:27:44;;;;;;;24.90;14.60;;;;;;;7.78;78.47;99435.56;103577;1303;22904;-25
2022/05/04 01:30:13;;;;;;;17.30;11.00;;;;;;;7.74;77.63;99435.88;103581;1303;24184;-25
2022/05/04 01:32:42;;;;;;;22.80;13.80;;;;;;;7.69;84.35;99437.33;103603;1303;23639;-25
2022/05/04 01:35:11;;;;;;;19.90;10.70;;;;;;;7.62;85.71;99438.96;103614;1303;25011;-25
2022/05/04 01:37:41;;;;;;;16.40;10.40;;;;;;;7.53;86.35;99442.73;103580;1303;22734;-28
2022/05/04 01:40:10;;;;;;;23.70;11.00;;;;;;;7.46;86.86;99442.84;103603;1303;22634;-27
2022/05/04 01:42:39;;;;;;;23.00;10.10;;;;;;;7.41;87.20;99442.48;103608;1302;24355;-25
2022/05/04 01:45:09;;;;;;;21.80;13.00;;;;;;;7.35;86.99;99448.55;103572;1303;22632;-23
2022/05/04 01:47:38;;;;;;;17.70;12.10;;;;;;;7.33;86.01;99449.63;103638;1303;22599;-28
2022/05/04 01:50:07;;;;;;;24.20;13.70;;;;;;;7.33;85.34;99452.30;103584;1303;23800;-30
2022/05/04 01:52:36;;;;;;;18.80;11.70;;;;;;;7.36;84.32;99455.52;103599;1303;22768;-29
2022/05/04 01:55:06;;;;;;;9.40;7.00;;;;;;;7.38;83.98;99456.77;103607;1303;23786;-25
2022/05/04 01:57:36;;;;;;;13.20;8.80;;;;;;;7.37;83.96;99459.23;103586;1303;23637;-29
2022/05/04 02:00:06;;;;;;;15.20;8.50;;;;;;;7.41;83.56;99459.39;103597;1303;23885;-25
2022/05/04 02:02:35;;;;;;;12.90;7.10;;;;;;;7.43;83.11;99462.60;103536;1303;22497;-28
2022/05/04 02:05:05;;;;;;;13.00;9.50;;;;;;;7.44;82.73;99460.36;103604;1303;22496;-30
2022/05/04 02:07:35;;;;;;;13.30;9.50;;;;;;;7.46;81.70;99459.01;103557;1303;23787;-25
2022/05/04 02:10:04;;;;;;;16.50;7.50;;;;;;;7.56;79.73;99456.19;103560;1303;23788;-28
2022/05/04 02:12:34;;;;;;;16.80;7.50;;;;;;;7.53;81.38;99456.17;103535;1302;22623;-30
2022/05/04 02:15:05;;;;;;;17.30;9.60;;;;;;;7.56;80.74;99457.25;103520;1303;24258;-25
2022/05/04 02:17:34;;;;;;;19.90;9.30;;;;;;;7.65;79.03;99456.48;103572;1303;24980;-30
2022/05/04 02:20:04;;;;;;;12.10;8.00;;;;;;;7.69;78.91;99450.83;103509;1303;24026;-24
2022/05/04 02:22:33;;;;;;;11.90;8.60;;;;;;;7.75;78.87;99451.79;103562;1303;24295;-29
2022/05/04 02:25:03;;;;;;;17.90;10.00;;;;;;;7.76;78.84;99451.69;103529;1303;23025;-25
2022/05/04 02:27:32;;;;;;;13.50;10.10;;;;;;;7.71;78.62;99451.75;103560;1303;22629;-25
2022/05/04 02:30:01;;;;;;;18.20;13.20;;;;;;;7.67;78.52;99449.36;103585;1303;22515;-25
2022/05/04 02:32:30;;;;;;;27.60;9.50;;;;;;;7.67;78.57;99449.70;103366;1303;24756;-29
2022/05/04 02:40:04;;;;;;;16.10;10.20;;;;;;;7.66;78.53;99451.75;103603;1303;24211;-25
2022/05/04 02:42:33;;;;;;;12.50;10.40;;;;;;;7.66;78.62;99449.61;103566;1303;23586;-25
2022/05/04 02:45:05;;;;;;;15.90;12.70;;;;;;;7.61;78.79;99446.06;103588;1303;24981;-25
2022/05/04 02:47:34;;;;;;;13.00;9.80;;;;;;;7.57;78.76;99450.36;103604;1302;24275;-28
2022/05/04 02:50:03;;;;;;;16.50;10.30;;;;;;;7.51;78.81;99446.80;103561;1303;22794;-28
2022/05/04 02:52:33;;;;;;;11.60;8.10;;;;;;;7.45;78.68;99449.37;103599;1303;24246;-28
2022/05/04 02:55:03;;;;;;;13.10;7.30;;;;;;;7.39;79.07;99452.49;103587;1301;24378;-29
2022/05/04 02:57:32;;;;;;;16.60;9.70;;;;;;;7.34;80.80;99454.02;103597;1303;25353;-28
2022/05/04 03:00:01;;;;;;;15.00;10.50;;;;;;;7.25;81.67;99459.50;103603;1301;23748;-25
2022/05/04 03:02:30;;;;;;;13.40;9.50;;;;;;;7.15;80.71;99462.35;103596;1303;25111;-24
2022/05/04 03:05:01;;;;;;;14.10;9.50;;;;;;;7.11;81.27;99462.31;103521;1303;23783;-25
2022/05/04 03:07:30;;;;;;;16.80;10.10;;;;;;;7.10;79.61;99462.77;103560;1303;25315;-25
2022/05/04 03:09:59;;;;;;;15.20;9.00;;;;;;;7.10;79.08;99464.94;103545;1303;23631;-28
2022/05/04 03:12:28;;;;;;;15.40;9.40;;;;;;;7.08;79.33;99466.99;103564;1303;24359;-25
2022/05/04 03:14:57;;;;;;;11.60;7.50;;;;;;;7.08;79.94;99468.32;103583;1303;24343;-28
2022/05/04 03:17:26;;;;;;;8.70;6.50;;;;;;;7.06;84.16;99466.62;103551;1303;22506;-28
2022/05/04 03:19:56;;;;;;;10.30;6.10;;;;;;;7.07;83.54;99470.12;103567;1302;22733;-28
2022/05/04 03:22:25;;;;;;;12.90;8.70;;;;;;;7.11;81.04;99473.39;103540;1303;23590;-24
2022/05/04 03:24:54;;;;;;;10.90;7.30;;;;;;;7.11;80.62;99475.87;103544;1302;23759;-27
2022/05/04 03:27:23;;;;;;;12.80;8.40;;;;;;;7.11;84.07;99480.70;103505;1303;23895;-27
2022/05/04 03:29:52;;;;;;;26.70;10.30;;;;;;;7.14;83.65;99479.75;103567;1303;24258;-27
2022/05/04 03:32:21;;;;;;;25.20;12.20;;;;;;;7.22;81.69;99477.59;103563;1303;23520;-25
2022/05/04 03:34:50;;;;;;;17.50;11.90;;;;;;;7.29;81.69;99479.86;103587;1303;25098;-25
2022/05/04 03:37:19;;;;;;;28.60;15.20;;;;;;;7.38;84.50;99480.21;103572;1303;23608;-27
2022/05/04 03:39:48;;;;;;;18.50;11.10;;;;;;;7.45;84.79;99484.77;103570;1303;25108;-25
2022/05/04 03:42:17;;;;;;;20.00;10.50;;;;;;;7.50;85.13;99487.28;103544;1303;23758;-28
2022/05/04 03:44:46;;;;;;;19.40;9.40;;;;;;;7.57;84.89;99490.91;103645;1303;24465;-24
2022/05/04 03:47:15;;;;;;;17.70;11.30;;;;;;;7.67;84.30;99491.90;103511;1303;23736;-24
2022/05/04 03:49:44;;;;;;;19.20;11.90;;;;;;;7.79;83.36;99495.41;103547;1303;22508;-24
2022/05/04 03:52:13;;;;;;;21.70;11.30;;;;;;;7.97;81.07;99494.23;103539;1303;22496;-27
2022/05/04 03:54:42;;;;;;;18.70;11.10;;;;;;;8.09;80.62;99491.34;103579;1303;24400;-28
2022/05/04 03:57:11;;;;;;;16.20;9.10;;;;;;;8.19;80.58;99490.02;103622;1303;22497;-24
2022/05/04 03:59:40;;;;;;;13.50;9.30;;;;;;;8.25;80.56;99493.06;103559;1303;24521;-28
2022/05/04 04:02:09;;;;;;;16.60;10.00;;;;;;;8.28;80.80;99493.20;103667;1303;25213;-28
2022/05/04 04:04:38;;;;;;;16.10;10.70;;;;;;;8.26;80.95;99493.52;103509;1303;24208;-28
2022/05/04 04:07:07;;;;;;;14.10;10.60;;;;;;;8.27;80.55;99492.44;103348;1304;22585;-30
2022/05/04 04:09:36;;;;;;;15.00;8.20;;;;;;;8.32;80.25;99494.75;103303;1303;24300;-30
2022/05/04 04:12:07;;;;;;;18.30;8.40;;;;;;;8.38;80.39;99501.86;103572;1303;24313;-30
2022/05/04 04:14:36;;;;;;;12.60;8.00;;;;;;;8.47;80.17;99504.83;103517;1303;23737;-27
2022/05/04 04:17:05;;;;;;;11.10;7.50;;;;;;;8.48;80.26;99507.15;103393;1303;260385;-29
2022/05/04 04:19:34;;;;;;;17.80;9.20;;;;;;;8.49;82.13;99506.54;103572;1303;22784;-30
2022/05/04 04:22:03;;;;;;;9.20;6.20;;;;;;;8.47;82.18;99507.66;103552;1303;23601;-25
2022/05/04 04:24:32;;;;;;;13.40;7.50;;;;;;;8.53;82.82;99509.21;103539;1303;22498;-25
2022/05/04 04:27:01;;;;;;;12.90;8.80;;;;;;;8.63;83.09;99511.58;103564;1303;23593;-24
2022/05/04 04:29:29;;;;;;;13.60;9.80;;;;;;;8.71;82.71;99512.28;103566;1303;24252;-25
2022/05/04 04:31:58;;;;;;;14.70;9.80;;;;;;;8.75;82.54;99513.11;103489;1303;23861;-24
2022/05/04 04:34:27;;;;;;;13.60;9.40;;;;;;;8.74;84.01;99518.41;103361;1303;24299;-28
2022/05/04 04:36:56;;;;;;;19.50;9.00;;;;;;;8.70;84.46;99520.69;103513;1303;25118;-28
2022/05/04 04:39:25;;;;;;;13.90;10.00;;;;;;;8.73;83.78;99523.70;103548;1303;24208;-25
2022/05/04 04:41:54;;;;;;;18.10;10.30;;;;;;;8.78;83.48;99529.54;103562;1303;23812;-28
2022/05/04 04:44:23;;;;;;;18.30;13.00;;;;;;;8.78;83.57;99531.05;103562;1303;23753;-30
2022/05/04 04:46:54;;;;;;;22.60;11.60;;;;;;;8.74;83.93;99530.29;103547;1303;22496;-24
2022/05/04 04:49:23;;;;;;;14.80;10.20;;;;;;;8.72;84.04;99532.67;103554;1303;22913;-30
2022/05/04 04:51:52;;;;;;;11.40;8.90;;;;;;;8.75;84.59;99531.48;103573;1303;23798;-25
2022/05/04 04:54:20;;;;;;;13.70;8.80;;;;;;;8.76;84.92;99533.98;103541;1303;24355;-25
2022/05/04 04:56:49;;;;;;;20.90;9.90;;;;;;;8.83;84.21;99537.17;103506;1302;22652;-25
2022/05/04 04:59:18;;;;;;;14.10;9.40;;;;;;;8.83;83.98;99541.04;103527;1303;22938;-28
2022/05/04 05:01:47;;;;;;;14.30;8.30;;;;;;;8.89;83.77;99541.06;103546;1301;25260;-29
2022/05/04 05:04:16;;;;;;;13.50;8.20;;;;;;;8.87;85.68;99547.95;103552;1303;24062;-25
2022/05/04 05:06:45;;;;;;;10.30;7.80;;;;;;;8.85;86.29;99547.96;103578;1303;24191;-24
2022/05/04 05:09:14;;;;;;;15.10;10.20;;;;;;;8.89;86.05;99542.46;103603;1303;23865;-25
2022/05/04 05:11:43;;;;;;;9.20;6.80;;;;;;;9.00;85.12;99543.83;103629;1303;22509;-30
2022/05/04 05:16:44;;;;;;;15.40;8.60;;;;;;;9.16;84.86;99541.98;103558;1303;24111;-30
2022/05/04 05:19:13;;;;;;;11.60;9.00;;;;;;;9.28;83.83;99544.56;103505;1303;24247;-25
2022/05/04 05:21:42;;;;;;;16.80;10.10;;;;;;;9.49;81.61;99543.40;103552;1303;24428;-28
2022/05/04 05:24:11;;;;;;;17.90;10.40;;;;;;;9.61;81.00;99541.91;103519;1303;24199;-28
2022/05/04 05:26:40;;;;;;;23.10;13.70;;;;;;;9.74;80.14;99542.40;103601;1303;24352;-25
2022/05/04 05:29:09;;;;;;;19.10;11.90;;;;;;;9.77;79.96;99543.71;103575;1303;22489;-25
2022/05/04 05:31:38;;;;;;;13.60;9.30;;;;;;;9.84;79.79;99539.80;103559;1302;22509;-28
2022/05/04 05:34:07;;;;;;;18.40;9.40;;;;;;;9.83;79.82;99537.41;103571;1302;24996;-24
2022/05/04 05:36:36;;;;;;;15.20;10.10;;;;;;;9.75;80.54;99545.85;103584;1302;23860;-28
2022/05/04 05:39:05;;;;;;;31.90;13.20;;;;;;;9.79;80.97;99542.59;103547;1303;22496;-28
2022/05/04 05:41:34;;;;;;;36.60;12.70;;;;;;;9.91;80.62;99539.71;103359;1303;24346;-25
2022/05/04 05:44:04;;;;;;;26.70;13.40;;;;;;;9.98;80.43;99538.65;103562;1303;24195;-28
2022/05/04 05:46:33;;;;;;;20.40;13.80;;;;;;;10.05;80.35;99540.61;103594;1302;22514;-27
2022/05/04 05:49:02;;;;;;;28.20;13.30;;;;;;;10.16;80.03;99537.64;103571;1303;24970;-25
2022/05/04 05:51:31;;;;;;;15.30;10.90;;;;;;;10.32;80.13;99541.22;103535;1303;22724;-25
2022/05/04 05:54:00;;;;;;;14.90;10.40;;;;;;;10.56;79.52;99544.42;103523;1303;24211;-25
2022/05/04 05:56:29;;;;;;;25.10;11.80;;;;;;;10.67;79.09;99542.00;103536;1303;25334;-28
2022/05/04 05:58:59;;;;;;;14.70;9.50;;;;;;;10.76;78.83;99542.08;103579;1303;23631;-25
2022/05/04 06:01:28;;;;;;;20.00;11.80;;;;;;;11.13;78.22;99544.38;103530;1303;22613;-28
2022/05/04 06:03:57;;;;;;;19.40;11.20;;;;;;;11.41;77.26;99537.43;103622;1303;24364;-27
2022/05/04 06:06:26;;;;;;;19.00;10.40;;;;;;;11.71;75.68;99539.27;103572;1303;24307;-27
2022/05/04 06:08:55;;;;;;;159.50;15.30;;;;;;;11.90;75.52;99535.69;103521;1303;22581;-25
2022/05/04 06:11:24;;;;;;;19.20;9.70;;;;;;;12.26;74.45;99535.71;103548;1303;23526;-24
2022/05/04 06:13:54;;;;;;;21.60;12.00;;;;;;;12.57;73.23;99538.30;103565;1303;23657;-28
2022/05/04 06:16:23;;;;;;;14.70;7.90;;;;;;;12.88;71.52;99541.45;103539;1303;24996;-28
2022/05/04 06:18:52;;;;;;;28.40;8.50;;;;;;;13.07;68.29;99542.34;103558;1303;24986;-28
2022/05/04 06:21:21;;;;;;;22.20;8.80;;;;;;;13.41;68.91;99541.45;103598;1303;24195;-30
2022/05/04 06:23:50;;;;;;;14.20;8.20;;;;;;;13.63;66.40;99546.81;103564;1303;22592;-24
2022/05/04 06:26:20;;;;;;;12.00;8.80;;;;;;;13.96;67.07;99541.08;103575;1303;22508;-28
2022/05/04 06:28:49;;;;;;;14.20;8.30;;;;;;;14.16;65.37;99536.11;103567;1303;22508;-28
2022/05/04 06:36:23;;;;;;;13.80;8.40;;;;;;;14.53;62.15;99544.84;103603;1303;24334;-26
2022/05/04 06:38:52;;;;;;;9.40;7.30;;;;;;;14.71;61.12;99546.80;103517;1303;23742;-25
2022/05/04 06:41:21;;;;;;;16.20;8.10;;;;;;;14.75;60.97;99550.55;103558;1303;24303;-28
2022/05/04 06:43:50;;;;;;;17.50;8.10;;;;;;;14.82;58.97;99553.56;103565;1303;25017;-25
2022/05/04 06:46:20;;;;;;;8.10;6.30;;;;;;;14.95;59.58;99553.59;103550;1303;24237;-24
2022/05/04 06:48:49;;;;;;;7.90;6.00;;;;;;;15.22;59.31;99557.67;103509;1303;24285;-24
2022/05/04 06:51:18;;;;;;;8.50;7.00;;;;;;;15.56;58.33;99558.70;103522;1303;24257;-25
2022/05/04 06:53:47;;;;;;;9.60;6.70;;;;;;;15.68;55.99;99555.70;103547;1303;22496;-28
2022/05/04 06:56:16;;;;;;;13.50;7.20;;;;;;;15.78;56.13;99554.96;103544;1303;24087;-27
2022/05/04 06:58:45;;;;;;;7.10;5.80;;;;;;;16.03;55.75;99553.83;103579;1303;23602;-27
2022/05/04 07:01:14;;;;;;;10.30;5.50;;;;;;;16.24;54.67;99551.92;103694;1303;24252;-30
2022/05/04 07:03:43;;;;;;;12.60;6.60;;;;;;;16.45;54.80;99550.59;103526;1303;23908;-25
2022/05/04 07:06:12;;;;;;;8.80;5.70;;;;;;;16.78;53.91;99547.44;103533;1303;24342;-28
2022/05/04 07:08:42;;;;;;;17.40;7.20;;;;;;;16.94;53.29;99546.89;103612;1303;25133;-28
2022/05/04 07:11:11;;;;;;;24.20;7.80;;;;;;;17.23;51.60;99547.69;103562;1303;24226;-24
2022/05/04 07:13:41;;;;;;;8.90;5.70;;;;;;;17.19;51.26;99550.05;103544;1303;24436;-28
2022/05/04 07:16:10;;;;;;;12.20;7.20;;;;;;;17.29;50.75;99551.67;103479;1303;22498;-24
2022/05/04 07:18:39;;;;;;;16.40;6.40;;;;;;;17.45;50.91;99549.86;103390;1303;24258;-28
2022/05/04 07:21:08;;;;;;;9.70;5.80;;;;;;;17.78;50.33;99548.80;103519;1302;22507;-29
2022/05/04 07:23:37;;;;;;;10.30;6.60;;;;;;;17.97;49.75;99549.91;103547;1303;24657;-25
2022/05/04 07:26:06;;;;;;;8.20;5.60;;;;;;;18.11;49.23;99554.11;103560;1303;24345;-24
2022/05/04 07:28:35;;;;;;;9.70;6.50;;;;;;;18.22;48.92;99551.75;103559;1303;24211;-24
2022/05/04 07:31:04;;;;;;;20.40;7.00;;;;;;;18.20;49.12;99549.82;103567;1303;24752;-28
2022/05/04 07:33:33;;;;;;;12.70;6.70;;;;;;;18.30;48.72;99557.38;103579;1303;23594;-25
2022/05/04 07:36:03;;;;;;;8.10;6.70;;;;;;;18.53;48.33;99553.58;103573;1303;23654;-28
2022/05/04 07:38:31;;;;;;;9.00;6.70;;;;;;;18.75;48.34;99553.22;103580;1303;22768;-30
2022/05/04 07:43:33;;;;;;;13.60;5.50;;;;;;;19.14;47.34;99561.48;103579;1303;24986;-28
2022/05/04 07:46:02;;;;;;;14.80;8.30;;;;;;;19.35;46.76;99566.92;103589;1303;23510;-25
2022/05/04 07:48:32;;;;;;;10.90;7.00;;;;;;;19.45;47.02;99565.86;103572;1303;22501;-25
2022/05/04 07:51:01;;;;;;;15.30;7.80;;;;;;;19.80;46.77;99567.55;103534;1303;22971;-25
2022/05/04 07:53:30;;;;;;;8.70;7.10;;;;;;;20.08;46.25;99564.80;103546;1303;25345;-24
2022/05/04 07:56:00;;;;;;;12.30;6.70;;;;;;;20.35;45.66;99567.10;103555;1303;24301;-24
2022/05/04 07:58:29;;;;;;;8.40;7.30;;;;;;;20.61;45.91;99569.98;103522;1303;23798;-27
2022/05/04 08:06:04;;;;;;;10.30;6.40;;;;;;;21.37;44.15;99565.47;103418;1303;23791;-28
2022/05/04 08:08:33;;;;;;;11.30;7.60;;;;;;;21.51;43.20;99568.58;103541;1303;24258;-28
2022/05/04 08:11:03;;;;;;;11.90;8.00;;;;;;;21.51;43.01;99571.52;103526;1303;24241;-28
2022/05/04 08:13:32;;;;;;;14.90;7.90;;;;;;;21.39;41.17;99569.43;103558;1303;25338;-26
2022/05/04 08:16:01;;;;;;;8.80;6.90;;;;;;;21.62;42.72;99571.74;103574;1303;24234;-29
2022/05/04 08:18:30;;;;;;;12.50;6.90;;;;;;;21.47;41.90;99574.67;103549;1303;23601;-25
2022/05/04 08:21:01;;;;;;;8.20;6.50;;;;;;;21.60;42.39;99573.88;103574;1303;24211;-29
2022/05/04 08:23:31;;;;;;;9.60;6.50;;;;;;;21.86;41.71;99575.05;103558;1303;23296;-24
2022/05/04 08:26:01;;;;;;;8.10;6.00;;;;;;;21.91;40.36;99575.56;103526;1303;23799;-24
2022/05/04 08:28:30;;;;;;;11.30;5.80;;;;;;;21.79;39.67;99576.21;103419;1303;22489;-29
2022/05/04 08:30:59;;;;;;;7.50;4.50;;;;;;;22.02;38.86;99574.56;103520;1303;24234;-28
2022/05/04 08:33:28;;;;;;;8.60;7.20;;;;;;;22.37;39.16;99571.91;103570;1303;25005;-25
2022/05/04 08:35:57;;;;;;;9.90;5.90;;;;;;;22.49;38.63;99571.73;103541;1303;22514;-24
2022/05/04 08:38:27;;;;;;;10.80;6.20;;;;;;;22.08;38.61;99576.84;103582;1302;22516;-28
2022/05/04 08:40:56;;;;;;;16.60;5.40;;;;;;;22.24;39.85;99579.00;103598;1300;25105;-25
2022/05/04 08:43:25;;;;;;;9.30;4.80;;;;;;;22.41;37.94;99577.95;103538;1303;25309;-28
2022/05/04 08:45:54;;;;;;;7.40;5.30;;;;;;;22.15;38.10;99583.10;103562;1303;23612;-24
2022/05/04 08:48:23;;;;;;;8.80;4.80;;;;;;;22.38;38.46;99580.95;103396;1303;24292;-24
2022/05/04 08:50:53;;;;;;;7.00;4.20;;;;;;;22.50;37.62;99578.24;103577;1303;23825;-28
2022/05/04 08:53:22;;;;;;;10.10;6.60;;;;;;;22.58;37.93;99576.72;103517;1303;24406;-28
2022/05/04 08:55:51;;;;;;;15.50;6.70;;;;;;;22.83;39.02;99574.40;103560;1303;23600;-27
2022/05/04 08:58:20;;;;;;;10.50;5.20;;;;;;;21.89;40.36;99575.10;103533;1303;22498;-28
2022/05/04 09:00:49;;;;;;;10.60;5.50;;;;;;;21.52;41.44;99573.16;103550;1303;23797;-28
2022/05/04 09:03:21;;;;;;;16.30;6.70;;;;;;;21.09;41.45;99576.45;103554;1303;22623;-28
2022/05/04 09:05:53;;;;;;;6.30;4.90;;;;;;;20.70;42.19;99578.63;103485;1303;24278;-24
2022/05/04 09:08:23;;;;;;;18.30;6.50;;;;;;;20.72;42.33;99581.54;103615;1303;23609;-28
2022/05/04 09:10:52;;;;;;;8.60;5.10;;;;;;;20.69;41.60;99581.63;103513;1303;25340;-29
2022/05/04 09:13:21;;;;;;;11.10;6.20;;;;;;;21.18;41.68;99575.70;103566;1303;24215;-28
2022/05/04 09:15:51;;;;;;;13.40;4.80;;;;;;;21.68;39.94;99578.39;103611;1303;22597;-25
2022/05/04 09:18:21;;;;;;;8.40;5.90;;;;;;;22.01;39.77;99578.27;103603;1302;23749;-29
2022/05/04 09:23:28;;;;;;;7.80;5.10;;;;;;;22.68;37.51;99578.44;103629;1303;23737;-28
2022/05/04 09:26:01;;;;;;;10.30;4.60;;;;;;;22.34;37.65;99577.60;103515;1303;24218;-25
2022/05/04 09:28:30;;;;;;;2.90;2.70;;;;;;;22.08;38.13;99575.25;103336;1303;24308;-28
2022/05/04 09:31:04;;;;;;;15.10;3.90;;;;;;;21.28;38.42;99574.91;103540;1303;24453;-28
2022/05/04 09:33:34;;;;;;;8.30;4.80;;;;;;;21.16;38.94;99573.94;103540;1303;22717;-24
2022/05/04 09:36:04;;;;;;;14.80;5.10;;;;;;;21.12;38.73;99573.80;103557;1303;25344;-28
2022/05/04 09:46:12;;;;;;;5.00;4.00;;;;;;;21.04;38.83;99566.41;103589;1303;22774;-28
2022/05/04 09:48:41;;;;;;;5.60;3.80;;;;;;;20.54;38.61;99565.73;103571;1302;22546;-28
2022/05/04 09:51:10;;;;;;;12.00;4.00;;;;;;;20.52;38.44;99567.25;103533;1303;22507;-28
2022/05/04 09:53:39;;;;;;;9.10;5.30;;;;;;;20.99;37.91;99561.40;103567;1303;23599;-25
2022/05/04 09:56:09;;;;;;;9.40;3.90;;;;;;;21.28;37.58;99557.64;103438;1303;24367;-24
2022/05/04 09:58:38;;;;;;;6.60;4.90;;;;;;;22.16;35.76;99558.55;103509;1303;24295;-28
2022/05/04 10:01:07;;;;;;;4.60;3.00;;;;;;;21.88;36.19;99559.58;103577;1301;22625;-28
2022/05/04 10:03:36;;;;;;;4.50;3.80;;;;;;;22.38;35.77;99558.08;103557;1303;24301;-24
2022/05/04 10:06:05;;;;;;;10.80;4.80;;;;;;;22.56;34.84;99550.02;103555;1303;23640;-24
2022/05/04 10:08:34;;;;;;;5.20;3.80;;;;;;;23.10;32.77;99547.07;103571;1303;23606;-24
2022/05/04 10:11:03;;;;;;;5.60;3.00;;;;;;;21.95;34.37;99558.11;103533;1303;24268;-24
2022/05/04 10:13:32;;;;;;;4.60;3.50;;;;;;;21.38;35.31;99554.27;103659;1303;22617;-28
2022/05/04 10:16:01;;;;;;;3.80;3.10;;;;;;;21.35;35.05;99556.05;103610;1303;24352;-26
2022/05/04 10:18:30;;;;;;;5.80;2.50;;;;;;;21.79;35.57;99553.08;103517;1303;22505;-24
2022/05/04 10:21:04;;;;;;;6.20;3.50;;;;;;;22.60;34.35;99549.38;103570;1303;24194;-28
2022/05/04 10:23:36;;;;;;;6.80;3.20;;;;;;;23.04;34.06;99545.88;103569;1303;24977;-28
2022/05/04 10:26:05;;;;;;;3.70;3.30;;;;;;;23.46;33.53;99548.39;103555;1303;24397;-24
2022/05/04 10:28:36;;;;;;;5.10;4.30;;;;;;;24.11;32.44;99543.23;103622;1303;23064;-24
2022/05/04 10:31:10;;;;;;;8.70;4.00;;;;;;;23.93;32.10;99544.75;103553;1301;23576;-28
2022/05/04 10:33:43;;;;;;;7.70;3.40;;;;;;;23.94;32.79;99537.79;103534;1302;25118;-28
2022/05/04 10:36:13;;;;;;;4.70;4.20;;;;;;;23.89;33.15;99534.73;103549;1301;24248;-28
2022/05/04 10:38:43;;;;;;;8.90;4.20;;;;;;;24.29;32.22;99533.26;103557;1303;23830;-28
2022/05/04 10:41:12;;;;;;;4.80;3.40;;;;;;;24.10;31.83;99531.02;103561;1303;24294;-28
2022/05/04 10:43:45;;;;;;;3.90;3.50;;;;;;;24.20;31.59;99529.36;103552;1302;24208;-24
2022/05/04 10:46:17;;;;;;;5.10;2.90;;;;;;;24.40;31.26;99526.63;103468;1302;23611;-28
2022/05/04 10:48:50;;;;;;;6.70;4.10;;;;;;;24.47;31.36;99527.88;103596;1303;23564;-25
2022/05/04 10:51:21;;;;;;;4.20;3.00;;;;;;;24.80;30.50;99526.11;103603;1303;24436;-28
2022/05/04 10:53:53;;;;;;;5.00;3.30;;;;;;;24.27;31.08;99520.31;103642;1303;25401;-24
2022/05/04 10:56:23;;;;;;;4.40;3.40;;;;;;;24.40;31.09;99519.20;103509;1303;23609;-28
2022/05/04 10:58:53;;;;;;;7.00;3.60;;;;;;;23.61;31.03;99520.84;103595;1303;24395;-24
2022/05/04 11:01:28;;;;;;;8.50;3.90;;;;;;;23.17;31.63;99519.23;103514;1303;24211;-28
2022/05/04 11:03:59;;;;;;;4.70;3.30;;;;;;;23.55;31.55;99516.80;103529;1303;23896;-28
2022/05/04 11:06:29;;;;;;;6.60;4.20;;;;;;;24.00;30.85;99518.98;103574;1303;24266;-24
2022/05/04 11:09:04;;;;;;;4.30;3.50;;;;;;;23.73;31.06;99518.55;103538;1303;25334;-24
2022/05/04 11:11:34;;;;;;;4.00;3.10;;;;;;;24.18;30.43;99516.53;103527;1302;23596;-30
2022/05/04 11:14:04;;;;;;;3.40;3.10;;;;;;;24.39;30.44;99519.42;103632;1303;22506;-28
2022/05/04 11:16:34;;;;;;;14.30;3.60;;;;;;;24.92;29.83;99518.05;103511;1303;23299;-24
2022/05/04 11:19:04;;;;;;;2.90;2.40;;;;;;;25.11;29.32;99514.04;103541;1303;22503;-28
2022/05/04 11:21:34;;;;;;;4.40;3.10;;;;;;;24.57;30.21;99513.95;103583;1303;25108;-28
2022/05/04 11:24:05;;;;;;;3.30;3.00;;;;;;;24.72;30.35;99512.11;103562;1303;24260;-28
2022/05/04 11:26:36;;;;;;;3.10;2.80;;;;;;;25.09;30.08;99512.13;103562;1302;23374;-25
2022/05/04 11:29:08;;;;;;;3.70;2.30;;;;;;;25.36;29.35;99511.72;103695;1303;25338;-28
2022/05/04 11:31:41;;;;;;;4.20;2.40;;;;;;;24.58;29.46;99511.02;103545;1302;22516;-28
2022/05/04 11:34:13;;;;;;;3.70;2.70;;;;;;;23.51;30.87;99519.49;103530;1303;23605;-24
2022/05/04 11:36:45;;;;;;;5.60;4.30;;;;;;;23.41;31.34;99520.13;103506;1303;24193;-23
2022/05/04 11:39:18;;;;;;;4.70;3.40;;;;;;;23.08;32.06;99522.38;103553;1303;22641;-28
2022/05/04 11:41:48;;;;;;;3.10;2.30;;;;;;;22.49;32.75;99521.80;103545;1303;24261;-29
2022/05/04 11:44:21;;;;;;;7.40;3.00;;;;;;;21.92;33.91;99524.20;103538;1303;22944;-28
2022/05/04 11:46:51;;;;;;;9.00;3.60;;;;;;;21.16;35.21;99523.36;103538;1303;24217;-24
2022/05/04 11:49:22;;;;;;;6.50;3.60;;;;;;;20.91;35.65;99518.41;103462;1302;22741;-28
2022/05/04 11:51:51;;;;;;;3.90;2.60;;;;;;;20.69;35.74;99519.84;103565;1303;25871;-25
2022/05/04 11:54:20;;;;;;;2.60;2.30;;;;;;;20.41;36.15;99517.91;103548;1303;23614;-28
2022/05/04 11:56:50;;;;;;;2.60;2.40;;;;;;;20.10;36.67;99519.94;103585;1303;22509;-28
2022/05/04 11:59:19;;;;;;;4.70;2.90;;;;;;;20.19;36.78;99518.84;103544;1303;24188;-30
2022/05/04 12:01:48;;;;;;;10.70;2.80;;;;;;;20.07;36.89;99518.76;103450;1303;24208;-27
2022/05/04 12:04:17;;;;;;;4.50;2.70;;;;;;;19.80;37.72;99519.48;103581;1303;24983;-28